Time,TemperatureF,DewpointF,PressureIn,WindDirection,WindDirectionDegrees,WindSpeedMPH,WindSpeedGustMPH,Humidity,HourlyPrecipIn,Conditions,Clouds,dailyrainin,SoftwareType,DateUTC
2013-05-03 00:11:00,64.1,57.0,30.05,SSW,204,0.0,0.0,77,0.00,,,0.00,weatherlink.com 1.10,2013-05-03 04:11:00,
2013-05-03 00:26:00,63.7,56.0,30.05,SSW,203,0.0,0.0,77,0.00,,,0.00,weatherlink.com 1.10,2013-05-03 04:26:00,
2013-05-03 00:41:00,63.3,56.0,30.04,SSW,203,0.0,0.0,78,0.00,,,0.00,weatherlink.com 1.10,2013-05-03 04:41:00,
2013-05-03 00:56:00,63.0,56.0,30.04,SSW,204,0.0,0.0,79,0.00,,,0.00,weatherlink.com 1.10,2013-05-03 04:56:00,
2013-05-03 01:11:00,62.9,56.0,30.04,SSW,203,0.0,0.0,79,0.00,,,0.00,weatherlink.com 1.10,2013-05-03 05:11:00,
2013-05-03 01:26:00,62.7,57.0,30.04,SSW,204,0.0,0.0,81,0.00,,,0.00,weatherlink.com 1.10,2013-05-03 05:26:00,
2013-05-03 01:41:00,62.5,57.0,30.03,SSW,203,0.0,0.0,81,0.00,,,0.00,weatherlink.com 1.10,2013-05-03 05:41:00,
2013-05-03 01:56:00,62.6,57.0,30.03,SSW,204,0.0,0.0,81,0.00,,,0.00,weatherlink.com 1.10,2013-05-03 05:56:00,
2013-05-03 02:11:00,63.1,57.0,30.03,SSW,203,0.0,0.0,79,0.00,,,0.00,weatherlink.com 1.10,2013-05-03 06:11:00,
2013-05-03 02:26:00,63.4,56.0,30.02,SSW,203,0.0,0.0,77,0.00,,,0.00,weatherlink.com 1.10,2013-05-03 06:26:00,
2013-05-03 02:41:00,63.7,56.0,30.02,SSW,203,0.0,0.0,77,0.00,,,0.00,weatherlink.com 1.10,2013-05-03 06:41:00,
2013-05-03 02:56:00,64.1,56.0,30.02,SSW,204,0.0,0.0,76,0.00,,,0.00,weatherlink.com 1.10,2013-05-03 06:56:00,
2013-05-03 03:11:00,64.4,56.0,30.02,SSW,204,0.0,0.0,75,0.00,,,0.00,weatherlink.com 1.10,2013-05-03 07:11:00,
2013-05-03 03:26:00,64.4,56.0,30.02,SSW,203,0.0,0.0,75,0.00,,,0.00,weatherlink.com 1.10,2013-05-03 07:26:00,
2013-05-03 03:41:00,64.1,56.0,30.02,SSW,204,0.0,0.0,75,0.00,,,0.00,weatherlink.com 1.10,2013-05-03 07:41:00,
2013-05-03 03:56:00,63.8,56.0,30.02,SSW,204,0.0,0.0,76,0.00,,,0.00,weatherlink.com 1.10,2013-05-03 07:56:00,
2013-05-03 04:11:00,63.4,56.0,30.01,SSW,204,0.0,0.0,77,0.00,,,0.00,weatherlink.com 1.10,2013-05-03 08:11:00,
2013-05-03 04:26:00,63.0,56.0,30.02,SSW,204,0.0,0.0,78,0.00,,,0.00,weatherlink.com 1.10,2013-05-03 08:26:00,
2013-05-03 04:41:00,62.8,56.0,30.02,SSW,204,0.0,0.0,79,0.00,,,0.00,weatherlink.com 1.10,2013-05-03 08:41:00,
2013-05-03 04:56:00,62.7,56.0,30.02,SSW,204,0.0,0.0,79,0.00,,,0.00,weatherlink.com 1.10,2013-05-03 08:56:00,
2013-05-03 05:11:00,62.6,56.0,30.02,SSW,204,0.0,0.0,79,0.00,,,0.00,weatherlink.com 1.10,2013-05-03 09:11:00,
2013-05-03 05:26:00,62.4,55.0,30.02,SSW,204,0.0,0.0,78,0.00,,,0.00,weatherlink.com 1.10,2013-05-03 09:26:00,
2013-05-03 05:41:00,62.2,55.0,30.02,SW,223,0.0,0.0,78,0.00,,,0.00,weatherlink.com 1.10,2013-05-03 09:41:00,
2013-05-03 05:56:00,62.0,55.0,30.03,SW,223,0.0,0.0,78,0.00,,,0.00,weatherlink.com 1.10,2013-05-03 09:56:00,
2013-05-03 06:11:00,61.7,55.0,30.03,SW,223,0.0,0.0,78,0.00,,,0.00,weatherlink.com 1.10,2013-05-03 10:11:00,
2013-05-03 06:26:00,61.4,55.0,30.03,SW,223,0.0,0.0,79,0.00,,,0.00,weatherlink.com 1.10,2013-05-03 10:26:00,
2013-05-03 06:41:00,61.3,55.0,30.03,SSW,211,0.0,0.0,79,0.00,,,0.00,weatherlink.com 1.10,2013-05-03 10:41:00,
2013-05-03 06:56:00,61.3,55.0,30.03,ENE,76,0.0,0.0,79,0.00,,,0.00,weatherlink.com 1.10,2013-05-03 10:56:00,
2013-05-03 07:11:00,61.3,54.0,30.04,SE,127,0.0,0.0,78,0.00,,,0.00,weatherlink.com 1.10,2013-05-03 11:11:00,
2013-05-03 07:27:00,61.2,55.0,30.04,SE,127,0.0,0.0,79,0.00,,,0.00,weatherlink.com 1.10,2013-05-03 11:27:00,
2013-05-03 07:42:00,61.2,54.0,30.04,SSE,157,0.0,0.0,78,0.00,,,0.00,weatherlink.com 1.10,2013-05-03 11:42:00,
2013-05-03 07:57:00,61.1,55.0,30.04,SSE,157,0.0,0.0,79,0.00,,,0.00,weatherlink.com 1.10,2013-05-03 11:57:00,
2013-05-03 08:12:00,61.5,55.0,30.04,SSE,156,0.0,0.0,78,0.00,,,0.00,weatherlink.com 1.10,2013-05-03 12:12:00,
2013-05-03 08:27:00,61.8,55.0,30.05,West,268,0.0,0.0,78,0.00,,,0.00,weatherlink.com 1.10,2013-05-03 12:27:00,
2013-05-03 08:42:00,62.3,55.0,30.05,SSW,211,0.0,0.0,78,0.00,,,0.00,weatherlink.com 1.10,2013-05-03 12:42:00,
2013-05-03 08:57:00,63.4,56.0,30.05,SSW,203,0.0,0.0,76,0.00,,,0.00,weatherlink.com 1.10,2013-05-03 12:57:00,
2013-05-03 09:12:00,64.3,55.0,30.05,South,172,0.0,0.0,73,0.00,,,0.00,weatherlink.com 1.10,2013-05-03 13:12:00,
2013-05-03 09:27:00,64.9,55.0,30.04,SSE,159,0.0,0.0,71,0.00,,,0.00,weatherlink.com 1.10,2013-05-03 13:27:00,
2013-05-03 09:42:00,65.8,56.0,30.04,SSW,197,0.0,0.0,71,0.00,,,0.00,weatherlink.com 1.10,2013-05-03 13:42:00,
2013-05-03 09:57:00,66.3,57.0,30.04,SSE,161,0.0,0.0,71,0.00,,,0.00,weatherlink.com 1.10,2013-05-03 13:57:00,
2013-05-03 10:12:00,66.6,57.0,30.03,South,174,0.0,0.0,70,0.00,,,0.00,weatherlink.com 1.10,2013-05-03 14:12:00,
2013-05-03 10:27:00,66.4,56.0,30.03,SSE,157,0.0,0.0,69,0.00,,,0.00,weatherlink.com 1.10,2013-05-03 14:27:00,
2013-05-03 10:42:00,67.0,57.0,30.03,SSE,157,0.0,0.0,70,0.00,,,0.00,weatherlink.com 1.10,2013-05-03 14:42:00,
2013-05-03 10:57:00,68.1,57.0,30.03,SSE,153,0.0,0.0,68,0.00,,,0.00,weatherlink.com 1.10,2013-05-03 14:57:00,
2013-05-03 11:12:00,68.6,58.0,30.02,SSW,192,0.0,0.0,68,0.00,,,0.00,weatherlink.com 1.10,2013-05-03 15:12:00,
2013-05-03 11:27:00,69.3,57.0,30.02,South,181,0.0,0.0,66,0.00,,,0.00,weatherlink.com 1.10,2013-05-03 15:27:00,
2013-05-03 11:42:00,69.9,58.0,30.02,SSE,158,0.0,0.0,65,0.00,,,0.00,weatherlink.com 1.10,2013-05-03 15:42:00,
2013-05-03 11:57:00,70.7,59.0,30.01,South,186,0.0,0.0,67,0.00,,,0.00,weatherlink.com 1.10,2013-05-03 15:57:00,
2013-05-03 12:12:00,71.2,58.0,30.01,SSW,202,0.0,0.0,63,0.00,,,0.00,weatherlink.com 1.10,2013-05-03 16:12:00,
2013-05-03 12:27:00,71.5,59.0,30.00,South,184,0.0,0.0,64,0.00,,,0.00,weatherlink.com 1.10,2013-05-03 16:27:00,
2013-05-03 12:42:00,72.2,59.0,29.99,SSW,197,0.0,0.0,63,0.00,,,0.00,weatherlink.com 1.10,2013-05-03 16:42:00,
2013-05-03 12:57:00,72.5,59.0,29.99,SSW,201,0.0,0.0,62,0.00,,,0.00,weatherlink.com 1.10,2013-05-03 16:57:00,
2013-05-03 13:12:00,73.1,57.0,29.98,SSW,200,0.0,0.0,58,0.00,,,0.00,weatherlink.com 1.10,2013-05-03 17:12:00,
2013-05-03 13:27:00,73.6,59.0,29.98,SSE,148,0.0,0.0,60,0.00,,,0.00,weatherlink.com 1.10,2013-05-03 17:27:00,
2013-05-03 13:42:00,74.2,58.0,29.97,SSE,157,0.0,0.0,57,0.00,,,0.00,weatherlink.com 1.10,2013-05-03 17:42:00,
2013-05-03 13:57:00,75.0,58.0,29.97,SSE,162,0.0,0.0,56,0.00,,,0.00,weatherlink.com 1.10,2013-05-03 17:57:00,
2013-05-03 14:12:00,75.5,59.0,29.96,WSW,252,0.0,0.0,57,0.00,,,0.00,weatherlink.com 1.10,2013-05-03 18:12:00,
2013-05-03 14:27:00,75.9,57.0,29.96,SSE,152,0.0,0.0,53,0.00,,,0.00,weatherlink.com 1.10,2013-05-03 18:27:00,
2013-05-03 14:42:00,75.4,57.0,29.95,South,188,0.0,0.0,54,0.00,,,0.00,weatherlink.com 1.10,2013-05-03 18:42:00,
2013-05-03 14:57:00,74.5,58.0,29.95,SE,146,0.0,0.0,56,0.00,,,0.00,weatherlink.com 1.10,2013-05-03 18:57:00,
2013-05-03 15:12:00,74.9,59.0,29.95,SSW,209,0.0,0.0,57,0.00,,,0.00,weatherlink.com 1.10,2013-05-03 19:12:00,
2013-05-03 15:27:00,75.8,58.0,29.95,SSE,160,0.0,0.0,55,0.00,,,0.00,weatherlink.com 1.10,2013-05-03 19:27:00,
2013-05-03 15:42:00,75.7,58.0,29.94,SE,124,0.0,0.0,54,0.00,,,0.00,weatherlink.com 1.10,2013-05-03 19:42:00,
2013-05-03 15:57:00,75.9,59.0,29.93,SE,127,0.0,0.0,57,0.00,,,0.00,weatherlink.com 1.10,2013-05-03 19:57:00,
2013-05-03 16:12:00,76.8,58.0,29.92,South,185,0.0,0.0,53,0.00,,,0.00,weatherlink.com 1.10,2013-05-03 20:12:00,
2013-05-03 16:27:00,77.2,56.0,29.92,South,171,0.0,0.0,48,0.00,,,0.00,weatherlink.com 1.10,2013-05-03 20:27:00,
2013-05-03 16:42:00,76.2,58.0,29.92,ESE,123,0.0,0.0,53,0.00,,,0.00,weatherlink.com 1.10,2013-05-03 20:42:00,
2013-05-03 16:57:00,75.9,56.0,29.92,SE,135,0.0,0.0,51,0.00,,,0.00,weatherlink.com 1.10,2013-05-03 20:57:00,
2013-05-03 17:12:00,75.7,56.0,29.92,SSE,163,0.0,0.0,51,0.00,,,0.00,weatherlink.com 1.10,2013-05-03 21:12:00,
2013-05-03 17:27:00,75.5,57.0,29.91,SE,143,0.0,0.0,53,0.00,,,0.00,weatherlink.com 1.10,2013-05-03 21:27:00,
2013-05-03 17:42:00,75.5,55.0,29.91,South,174,0.0,0.0,50,0.00,,,0.00,weatherlink.com 1.10,2013-05-03 21:42:00,
2013-05-03 17:57:00,75.1,55.0,29.92,SSE,151,0.0,0.0,50,0.00,,,0.00,weatherlink.com 1.10,2013-05-03 21:57:00,
2013-05-03 18:12:00,74.6,55.0,29.92,SSE,150,0.0,0.0,50,0.00,,,0.00,weatherlink.com 1.10,2013-05-03 22:12:00,
2013-05-03 18:27:00,74.1,52.0,29.92,ENE,71,0.0,0.0,47,0.00,,,0.00,weatherlink.com 1.10,2013-05-03 22:27:00,
2013-05-03 18:42:00,74.0,52.0,29.92,SW,215,0.0,0.0,46,0.00,,,0.00,weatherlink.com 1.10,2013-05-03 22:42:00,
2013-05-03 18:57:00,73.7,51.0,29.92,East,88,0.0,0.0,45,0.00,,,0.00,weatherlink.com 1.10,2013-05-03 22:57:00,
2013-05-03 19:12:00,73.2,51.0,29.92,East,100,0.0,0.0,45,0.00,,,0.00,weatherlink.com 1.10,2013-05-03 23:12:00,
2013-05-03 19:28:00,72.4,49.0,29.92,SE,138,0.0,0.0,43,0.00,,,0.00,weatherlink.com 1.10,2013-05-03 23:28:00,
2013-05-03 19:43:00,71.4,46.0,29.93,South,186,0.0,0.0,41,0.00,,,0.00,weatherlink.com 1.10,2013-05-03 23:43:00,
2013-05-03 19:58:00,70.4,43.0,29.93,SE,142,0.0,0.0,37,0.00,,,0.00,weatherlink.com 1.10,2013-05-03 23:58:00,
2013-05-03 20:13:00,69.7,43.0,29.93,SE,144,0.0,0.0,38,0.00,,,0.00,weatherlink.com 1.10,2013-05-04 00:13:00,
2013-05-03 20:28:00,68.4,46.0,29.93,NNE,33,0.0,0.0,45,0.00,,,0.00,weatherlink.com 1.10,2013-05-04 00:28:00,
2013-05-03 20:43:00,67.3,43.0,29.93,NNE,33,0.0,0.0,42,0.00,,,0.00,weatherlink.com 1.10,2013-05-04 00:43:00,
2013-05-03 20:58:00,66.9,44.0,29.93,ENE,65,0.0,0.0,44,0.00,,,0.00,weatherlink.com 1.10,2013-05-04 00:58:00,
2013-05-03 21:13:00,67.0,42.0,29.93,ESE,107,0.0,0.0,40,0.00,,,0.00,weatherlink.com 1.10,2013-05-04 01:13:00,
2013-05-03 21:28:00,66.8,44.0,29.93,East,85,0.0,0.0,44,0.00,,,0.00,weatherlink.com 1.10,2013-05-04 01:28:00,
2013-05-03 21:43:00,66.9,44.0,29.93,SE,132,0.0,0.0,43,0.00,,,0.00,weatherlink.com 1.10,2013-05-04 01:43:00,
2013-05-03 21:58:00,66.5,43.0,29.93,East,100,0.0,0.0,42,0.00,,,0.00,weatherlink.com 1.10,2013-05-04 01:58:00,
2013-05-03 22:13:00,66.5,42.0,29.94,East,97,0.0,0.0,41,0.00,,,0.00,weatherlink.com 1.10,2013-05-04 02:13:00,
2013-05-03 22:28:00,66.7,41.0,29.94,SE,134,0.0,0.0,39,0.00,,,0.00,weatherlink.com 1.10,2013-05-04 02:28:00,
2013-05-03 22:43:00,66.9,42.0,29.94,SSE,155,0.0,0.0,40,0.00,,,0.00,weatherlink.com 1.10,2013-05-04 02:43:00,
2013-05-03 22:58:00,66.6,42.0,29.94,SE,139,0.0,0.0,41,0.00,,,0.00,weatherlink.com 1.10,2013-05-04 02:58:00,
2013-05-03 23:13:00,66.6,42.0,29.94,South,190,0.0,0.0,41,0.00,,,0.00,weatherlink.com 1.10,2013-05-04 03:13:00,
2013-05-03 23:28:00,66.2,42.0,29.94,SE,143,0.0,0.0,41,0.00,,,0.00,weatherlink.com 1.10,2013-05-04 03:28:00,
2013-05-03 23:43:00,66.2,42.0,29.94,ESE,117,0.0,0.0,41,0.00,,,0.00,weatherlink.com 1.10,2013-05-04 03:43:00,
2013-05-03 23:58:00,65.8,42.0,29.95,SE,126,0.0,0.0,42,0.00,,,0.00,weatherlink.com 1.10,2013-05-04 03:58:00,